aviador You're here:

DTTD Decoded Metar

REMADA in TUNISIA
Report Time2018-02-19 07:00:00
UTC Time2018-02-19 07:53:27
Flight Rules mvfr MVFR
Wind050° at 04 kt
W.Decomp.*RWY 02: 3.5 kt HW 1.9 kt RCW
W.Rank050° ranks 13
Current wind is below 050° avg. (6.6)
Visibility5000 m
Phenomena:N/A
Clouds:Scattered 026 Hf
Broken 030 Hf
Expected CloudBase > 1,200 ft AGL from Temp-Dew spread
Ceiling3,000 ft
Temp11°C (ISA -2)
Dew Point08°C (82% RH)
AAT9.1°C
QNH1016 hPa
Density Alt794 ft
Elevation988 ft
Report Wrong Elevation
Raw Report
DTTD 190700Z 05004KT 010V150 5000 SCT026 BKN030 11/08 Q1016=

Extra information for DTTD:More info

Metar Taf Metar & Taf Last 4 Metars F.Rules Stats Wind Profile Meteogram Temp Stats Airport Information Weather charts Add Link Nearby VenuesMetar ALERT Operation Metar Decoded Social comments